createdAt,value
2018-05-29T00:02:20.612Z,7.60
2018-05-29T00:04:48.657Z,7.47
2018-05-29T00:07:16.716Z,7.20
2018-05-29T00:09:45.538Z,7.60
2018-05-29T00:12:14.360Z,7.97
2018-05-29T00:14:42.404Z,8.43
2018-05-29T00:17:11.218Z,8.00
2018-05-29T00:19:40.026Z,7.90
2018-05-29T00:22:08.848Z,7.37
2018-05-29T00:24:36.929Z,8.53
2018-05-29T00:27:05.013Z,7.40
2018-05-29T00:29:33.091Z,8.73
2018-05-29T00:32:01.148Z,7.80
2018-05-29T00:34:29.190Z,9.23
2018-05-29T00:36:57.231Z,10.83
2018-05-29T00:39:26.154Z,10.57
2018-05-29T00:41:54.187Z,9.07
2018-05-29T00:44:22.247Z,7.80
2018-05-29T00:46:50.310Z,8.93
2018-05-29T00:49:18.372Z,11.10
2018-05-29T00:51:47.182Z,7.80
2018-05-29T00:54:15.999Z,7.43
2018-05-29T00:56:44.036Z,9.57
2018-05-29T00:59:12.091Z,7.77
2018-05-29T01:01:40.158Z,8.20
2018-05-29T01:04:08.211Z,7.73
2018-05-29T01:06:37.048Z,7.93
2018-05-29T01:09:05.996Z,9.83
2018-05-29T01:11:34.039Z,8.40
2018-05-29T01:14:02.088Z,8.20
2018-05-29T01:16:30.891Z,8.60
2018-05-29T01:18:59.703Z,8.53
2018-05-29T01:21:27.744Z,9.07
2018-05-29T01:23:55.795Z,8.10
2018-05-29T01:26:23.867Z,15.37
2018-05-29T01:28:51.952Z,12.40
2018-05-29T01:31:19.991Z,8.27
2018-05-29T01:33:48.035Z,9.03
2018-05-29T01:36:16.082Z,9.73
2018-05-29T01:38:44.914Z,8.33
2018-05-29T01:41:12.958Z,9.77
2018-05-29T01:43:41.015Z,9.67
2018-05-29T01:46:09.088Z,8.57
2018-05-29T01:48:37.135Z,8.23
2018-05-29T01:51:05.183Z,9.50
2018-05-29T01:53:33.999Z,9.07
2018-05-29T01:56:02.824Z,11.87
2018-05-29T01:58:30.867Z,8.97
2018-05-29T02:00:58.915Z,8.90
2018-05-29T02:03:26.952Z,8.70
2018-05-29T02:05:55.008Z,11.17
2018-05-29T02:08:23.053Z,10.13
2018-05-29T02:10:51.139Z,8.27
2018-05-29T02:13:19.182Z,10.50
2018-05-29T02:15:47.231Z,8.70
2018-05-29T02:18:15.272Z,10.13
2018-05-29T02:20:44.083Z,9.47
2018-05-29T02:23:12.231Z,9.30
2018-05-29T02:25:40.288Z,9.50
2018-05-29T02:28:08.326Z,10.40
2018-05-29T02:30:37.144Z,10.67
2018-05-29T02:33:05.192Z,10.03
2018-05-29T02:35:33.239Z,12.10
2018-05-29T02:38:01.287Z,11.27
2018-05-29T02:40:30.099Z,9.67
2018-05-29T02:42:58.143Z,9.53
2018-05-29T02:45:27.008Z,9.27
2018-05-29T02:47:55.043Z,9.67
2018-05-29T02:50:23.120Z,11.57
2018-05-29T02:52:51.160Z,10.43
2018-05-29T02:55:19.229Z,10.83
2018-05-29T02:57:47.271Z,10.33
2018-05-29T03:00:15.319Z,9.80
2018-05-29T03:02:43.364Z,10.47
2018-05-29T03:05:12.191Z,11.90
2018-05-29T03:07:40.231Z,10.47
2018-05-29T03:10:08.292Z,10.10
2018-05-29T03:12:36.348Z,9.77
2018-05-29T03:15:04.401Z,10.70
2018-05-29T03:17:33.207Z,11.70
2018-05-29T03:20:02.027Z,12.43
2018-05-29T03:22:30.067Z,10.50
2018-05-29T03:24:58.119Z,16.73
2018-05-29T03:27:26.167Z,14.70
2018-05-29T03:29:54.272Z,12.33
2018-05-29T03:32:22.320Z,10.73
2018-05-29T03:34:50.374Z,11.20
2018-05-29T03:37:18.420Z,10.97
2018-05-29T03:39:46.461Z,10.57
2018-05-29T03:42:14.518Z,10.50
2018-05-29T03:44:42.563Z,11.03
2018-05-29T03:47:10.611Z,15.57
2018-05-29T03:49:38.654Z,13.77
2018-05-29T03:52:06.741Z,12.07
2018-05-29T03:54:34.790Z,10.73
2018-05-29T03:57:03.710Z,11.33
2018-05-29T03:59:31.759Z,11.47
2018-05-29T04:02:00.604Z,10.77
2018-05-29T04:04:28.689Z,14.80
2018-05-29T04:06:56.755Z,11.57
2018-05-29T04:09:25.577Z,12.60
2018-05-29T04:11:53.633Z,11.03
2018-05-29T04:14:21.679Z,11.33
2018-05-29T04:16:49.731Z,12.23
2018-05-29T04:19:17.787Z,11.30
2018-05-29T04:21:46.602Z,11.03
2018-05-29T04:24:14.655Z,11.77
2018-05-29T04:26:42.793Z,12.60
2018-05-29T04:29:10.842Z,11.00
2018-05-29T04:31:39.755Z,11.40
2018-05-29T04:34:08.583Z,11.80
2018-05-29T04:36:36.667Z,11.70
2018-05-29T04:39:05.565Z,11.20
2018-05-29T04:41:33.651Z,10.77
2018-05-29T04:44:01.694Z,11.67
2018-05-29T04:46:29.746Z,12.20
2018-05-29T04:48:57.790Z,12.03
2018-05-29T04:51:25.855Z,13.47
2018-05-29T04:53:53.898Z,12.77
2018-05-29T04:56:21.956Z,13.13
2018-05-29T04:58:50.002Z,14.40
2018-05-29T05:01:18.059Z,13.97
2018-05-29T05:03:46.102Z,14.77
2018-05-29T05:06:14.171Z,17.60
2018-05-29T05:08:42.999Z,15.57
2018-05-29T05:11:11.039Z,15.53
2018-05-29T05:13:39.097Z,16.33
2018-05-29T05:16:07.142Z,14.60
2018-05-29T05:18:35.198Z,13.77
2018-05-29T05:21:03.243Z,15.73
2018-05-29T05:23:31.306Z,17.13
2018-05-29T05:25:59.344Z,15.10
2018-05-29T05:28:27.395Z,17.47
2018-05-29T05:30:55.443Z,16.50
2018-05-29T05:33:23.500Z,13.33
2018-05-29T05:35:51.547Z,17.43
2018-05-29T05:38:19.605Z,15.70
2018-05-29T05:40:47.651Z,14.33
2018-05-29T05:43:15.707Z,13.60
2018-05-29T05:45:43.763Z,15.57
2018-05-29T05:48:11.819Z,16.07
2018-05-29T05:50:39.867Z,15.57
2018-05-29T05:53:07.925Z,14.53
2018-05-29T05:55:36.003Z,14.53
2018-05-29T05:58:04.056Z,21.10
2018-05-29T06:00:32.896Z,15.97
2018-05-29T06:03:00.947Z,15.93
2018-05-29T06:05:29.772Z,18.00
2018-05-29T06:07:57.832Z,13.97
2018-05-29T06:10:26.643Z,13.90
2018-05-29T06:12:55.462Z,14.60
2018-05-29T06:15:23.515Z,15.10
2018-05-29T06:17:52.343Z,14.10
2018-05-29T06:20:21.167Z,15.60
2018-05-29T06:22:49.218Z,15.60
2018-05-29T06:25:18.040Z,16.03
2018-05-29T06:27:46.091Z,19.87
2018-05-29T06:30:14.903Z,16.43
2018-05-29T06:32:43.734Z,17.23
2018-05-29T06:35:11.783Z,14.83
2018-05-29T06:37:39.908Z,16.70
2018-05-29T06:40:07.963Z,15.00
2018-05-29T06:42:36.883Z,17.60
2018-05-29T06:45:04.973Z,16.45
2018-05-29T06:47:32.991Z,17.08
2018-05-29T06:50:01.051Z,15.43
2018-05-29T06:52:29.156Z,28.12
2018-05-29T06:54:57.313Z,15.73
2018-05-29T06:57:25.366Z,13.90
2018-05-29T06:59:54.187Z,14.80
2018-05-29T07:02:22.285Z,13.55
2018-05-29T07:04:50.348Z,14.05
2018-05-29T07:07:19.162Z,14.07
2018-05-29T07:09:47.211Z,12.57
2018-05-29T07:12:15.265Z,16.00
2018-05-29T07:14:43.324Z,12.23
2018-05-29T07:17:11.368Z,14.43
2018-05-29T07:19:39.423Z,13.30
2018-05-29T07:22:07.479Z,15.02
2018-05-29T07:24:35.537Z,12.73
2018-05-29T07:27:04.347Z,17.05
2018-05-29T07:29:32.413Z,13.98
2018-05-29T07:32:00.463Z,11.90
2018-05-29T07:34:28.517Z,15.38
2018-05-29T07:36:56.572Z,19.17
2018-05-29T07:39:25.403Z,14.20
2018-05-29T07:41:53.452Z,14.38
2018-05-29T07:44:21.513Z,11.70
2018-05-29T07:46:49.567Z,13.90
2018-05-29T07:49:17.647Z,13.73
2018-05-29T07:51:45.698Z,12.88
2018-05-29T07:54:14.524Z,13.32
2018-05-29T07:56:42.619Z,12.82
2018-05-29T07:59:10.700Z,13.43
2018-05-29T08:01:38.747Z,14.55
2018-05-29T08:04:06.804Z,14.52
2018-05-29T08:06:34.852Z,15.60
2018-05-29T08:09:02.931Z,12.77
2018-05-29T08:11:31.727Z,16.15
2018-05-29T08:14:00.031Z,18.65
2018-05-29T08:16:28.086Z,20.23
2018-05-29T08:18:56.935Z,15.73
2018-05-29T08:21:24.991Z,17.95
2018-05-29T08:23:53.039Z,16.20
2018-05-29T08:26:21.097Z,18.95
2018-05-29T08:28:49.147Z,17.10
2018-05-29T08:31:17.259Z,17.48
2018-05-29T08:33:45.307Z,18.83
2018-05-29T08:36:14.133Z,21.60
2018-05-29T08:38:42.179Z,20.20
2018-05-29T08:41:10.235Z,19.05
2018-05-29T08:43:38.287Z,18.48
2018-05-29T08:46:06.412Z,18.45
2018-05-29T08:48:35.160Z,16.17
2018-05-29T08:51:03.217Z,16.87
2018-05-29T08:53:31.265Z,16.80
2018-05-29T08:55:59.310Z,21.12
2018-05-29T08:58:27.371Z,18.23
2018-05-29T09:00:56.204Z,20.73
2018-05-29T09:03:24.251Z,15.80
2018-05-29T09:05:52.311Z,16.58
2018-05-29T09:08:20.360Z,17.20
2018-05-29T09:10:48.419Z,17.70
2018-05-29T09:13:17.235Z,13.45
2018-05-29T09:15:45.299Z,15.13
2018-05-29T09:18:13.352Z,19.60
2018-05-29T09:20:41.418Z,16.58
2018-05-29T09:23:09.491Z,17.10
2018-05-29T09:25:37.548Z,20.37
2018-05-29T09:28:06.363Z,14.98
2018-05-29T09:30:34.419Z,17.75
2018-05-29T09:33:02.544Z,22.40
2018-05-29T09:35:30.606Z,15.10
2018-05-29T09:37:59.419Z,17.17
2018-05-29T09:40:27.475Z,14.68
2018-05-29T09:42:55.521Z,13.50
2018-05-29T09:45:23.573Z,18.77
2018-05-29T09:47:51.673Z,17.00
2018-05-29T09:50:19.679Z,15.85
2018-05-29T09:52:47.788Z,19.45
2018-05-29T09:55:15.779Z,15.10
2018-05-29T09:57:43.835Z,19.42
2018-05-29T10:00:11.883Z,13.93
2018-05-29T10:02:39.942Z,14.40
2018-05-29T10:05:08.756Z,22.50
2018-05-29T10:07:37.576Z,16.87
2018-05-29T10:10:05.627Z,14.52
2018-05-29T10:12:33.695Z,15.85
2018-05-29T10:15:01.836Z,16.08
2018-05-29T10:17:29.921Z,23.80
2018-05-29T10:19:57.971Z,18.90
2018-05-29T10:22:26.804Z,16.92
2018-05-29T10:24:54.901Z,17.87
2018-05-29T10:27:22.946Z,20.23
2018-05-29T10:29:51.764Z,20.88
2018-05-29T10:32:20.589Z,17.55
2018-05-29T10:34:48.634Z,18.33
2018-05-29T10:37:16.687Z,17.77
2018-05-29T10:39:44.838Z,18.73
2018-05-29T10:42:12.922Z,16.48
2018-05-29T10:44:40.977Z,18.05
2018-05-29T10:47:09.791Z,16.08
2018-05-29T10:49:38.610Z,16.40
2018-05-29T10:52:06.663Z,15.10
2018-05-29T10:54:35.479Z,14.85
2018-05-29T10:57:04.299Z,15.48
2018-05-29T10:59:32.361Z,14.25
2018-05-29T11:02:01.188Z,17.62
2018-05-29T11:04:29.239Z,15.57
2018-05-29T11:06:58.079Z,18.92
2018-05-29T11:09:26.130Z,17.00
2018-05-29T11:11:54.951Z,16.92
2018-05-29T11:14:22.995Z,18.15
2018-05-29T11:16:51.049Z,19.90
2018-05-29T11:19:19.105Z,13.85
2018-05-29T11:21:47.155Z,19.92
2018-05-29T11:24:15.291Z,15.25
2018-05-29T11:26:43.343Z,14.77
2018-05-29T11:29:12.164Z,14.38
2018-05-29T11:31:40.214Z,15.30
2018-05-29T11:34:08.271Z,17.70
2018-05-29T11:36:36.331Z,15.77
2018-05-29T11:39:04.398Z,17.30
2018-05-29T11:41:33.320Z,14.90
2018-05-29T11:44:01.377Z,14.73
2018-05-29T11:46:30.201Z,12.85
2018-05-29T11:48:58.255Z,15.18
2018-05-29T11:51:27.071Z,15.55
2018-05-29T11:53:55.927Z,13.52
2018-05-29T11:56:23.976Z,12.77
2018-05-29T11:58:52.067Z,12.57
2018-05-29T12:01:20.120Z,15.60
2018-05-29T12:03:48.939Z,14.05
2018-05-29T12:06:16.992Z,16.50
2018-05-29T12:08:45.043Z,12.48
2018-05-29T12:11:13.091Z,15.10
2018-05-29T12:13:41.159Z,17.20
2018-05-29T12:16:09.975Z,14.82
2018-05-29T12:18:38.805Z,15.10
2018-05-29T12:21:06.871Z,14.65
2018-05-29T12:23:34.927Z,12.02
2018-05-29T12:26:03.741Z,13.62
2018-05-29T12:28:32.575Z,18.45
2018-05-29T12:31:00.655Z,12.30
2018-05-29T12:33:28.711Z,12.48
2018-05-29T12:35:57.519Z,11.38
2018-05-29T12:38:26.335Z,13.30
2018-05-29T12:40:54.382Z,12.15
2018-05-29T12:43:22.432Z,14.52
2018-05-29T12:45:50.471Z,14.27
2018-05-29T12:48:19.283Z,12.60
2018-05-29T12:50:47.331Z,14.90
2018-05-29T12:53:15.395Z,12.88
2018-05-29T12:55:43.450Z,15.10
2018-05-29T12:58:11.499Z,14.55
2018-05-29T13:00:40.340Z,9.73
2018-05-29T13:03:08.397Z,14.20
2018-05-29T13:05:37.203Z,10.88
2018-05-29T13:08:06.028Z,15.25
2018-05-29T13:10:34.075Z,13.70
2018-05-29T13:13:02.891Z,18.05
2018-05-29T13:15:31.707Z,15.85
2018-05-29T13:17:59.751Z,13.07
2018-05-29T13:20:27.812Z,15.15
2018-05-29T13:22:55.864Z,11.38
2018-05-29T13:25:23.988Z,10.27
2018-05-29T13:27:52.065Z,13.73
2018-05-29T13:30:20.091Z,11.95
2018-05-29T13:32:48.906Z,11.18
2018-05-29T13:35:17.766Z,14.43
2018-05-29T13:37:45.762Z,9.85
2018-05-29T13:40:13.819Z,11.68
2018-05-29T13:42:41.859Z,12.02
2018-05-29T13:45:10.679Z,16.48
2018-05-29T13:47:38.726Z,10.60
2018-05-29T13:50:06.852Z,12.85
2018-05-29T13:52:34.900Z,13.93
2018-05-29T13:55:03.030Z,15.13
2018-05-29T13:57:31.111Z,12.18
2018-05-29T13:59:59.162Z,10.57
2018-05-29T14:02:27.970Z,12.32
2018-05-29T14:04:56.795Z,11.93
2018-05-29T14:07:24.835Z,9.82
2018-05-29T14:09:52.888Z,15.23
2018-05-29T14:12:20.922Z,9.77
2018-05-29T14:14:49.761Z,12.23
2018-05-29T14:17:17.783Z,14.23
2018-05-29T14:19:45.847Z,9.55
2018-05-29T14:22:13.886Z,10.95
2018-05-29T14:24:42.708Z,11.65
2018-05-29T14:27:10.755Z,12.85
2018-05-29T14:29:38.834Z,13.48
2018-05-29T14:32:06.881Z,10.38
2018-05-29T14:34:34.933Z,10.77
2018-05-29T14:37:02.975Z,13.27
2018-05-29T14:39:31.023Z,12.45
2018-05-29T14:41:59.077Z,12.18
2018-05-29T14:44:27.899Z,11.50
2018-05-29T14:46:55.945Z,9.45
2018-05-29T14:49:24.155Z,14.82
2018-05-29T14:51:52.962Z,13.30
2018-05-29T14:54:21.016Z,9.63
2018-05-29T14:56:49.070Z,9.38
2018-05-29T14:59:17.152Z,9.80
2018-05-29T15:01:45.159Z,12.32
2018-05-29T15:04:13.211Z,11.32
2018-05-29T15:06:41.263Z,11.43
2018-05-29T15:09:10.122Z,9.98
2018-05-29T15:11:38.123Z,9.80
2018-05-29T15:14:06.180Z,11.15
2018-05-29T15:16:34.232Z,9.90
2018-05-29T15:19:02.282Z,11.10
2018-05-29T15:21:31.843Z,9.55
2018-05-29T15:23:59.888Z,8.90
2018-05-29T15:26:27.938Z,10.30
2018-05-29T15:28:55.988Z,11.95
2018-05-29T15:31:24.117Z,10.10
2018-05-29T15:33:52.164Z,11.73
2018-05-29T15:36:20.216Z,10.50
2018-05-29T15:38:49.034Z,9.80
2018-05-29T15:41:17.852Z,8.15
2018-05-29T15:43:45.898Z,10.48
2018-05-29T15:46:14.027Z,7.90
2018-05-29T15:48:42.115Z,9.98
2018-05-29T15:51:10.396Z,9.43
2018-05-29T15:53:38.443Z,13.20
2018-05-29T15:56:07.283Z,10.85
2018-05-29T15:58:35.335Z,10.07
2018-05-29T16:01:04.163Z,10.10
2018-05-29T16:03:32.211Z,8.40
2018-05-29T16:06:00.266Z,13.98
2018-05-29T16:08:28.307Z,9.07
2018-05-29T16:10:57.128Z,7.10
2018-05-29T16:13:25.166Z,14.27
2018-05-29T16:15:53.219Z,8.48
2018-05-29T16:18:21.267Z,12.07
2018-05-29T16:20:49.319Z,13.25
2018-05-29T16:23:17.452Z,8.45
2018-05-29T16:25:45.504Z,8.32
2018-05-29T16:28:13.543Z,8.38
2018-05-29T16:30:41.588Z,9.40
2018-05-29T16:33:10.397Z,8.88
2018-05-29T16:35:38.444Z,13.05
2018-05-29T16:38:06.486Z,8.70
2018-05-29T16:40:34.647Z,10.80
2018-05-29T16:43:02.645Z,10.13
2018-05-29T16:45:31.446Z,9.25
2018-05-29T16:47:59.539Z,11.68
2018-05-29T16:50:27.587Z,9.85
2018-05-29T16:52:56.407Z,10.90
2018-05-29T16:55:24.471Z,10.70
2018-05-29T16:57:53.291Z,7.37
2018-05-29T17:00:22.111Z,8.38
2018-05-29T17:02:50.147Z,8.85
2018-05-29T17:05:18.208Z,8.45
2018-05-29T17:07:46.247Z,8.43
2018-05-29T17:10:15.064Z,6.53
2018-05-29T17:12:43.111Z,9.15
2018-05-29T17:15:11.299Z,8.70
2018-05-29T17:17:39.303Z,9.68
2018-05-29T17:20:07.347Z,8.95
2018-05-29T17:22:35.399Z,10.27
2018-05-29T17:25:03.475Z,9.10
2018-05-29T17:27:31.529Z,8.45
2018-05-29T17:30:00.367Z,8.55
2018-05-29T17:32:28.446Z,9.18
2018-05-29T17:34:56.507Z,8.65
2018-05-29T17:37:25.322Z,10.27
2018-05-29T17:39:53.551Z,12.85
2018-05-29T17:42:21.704Z,8.38
2018-05-29T17:44:49.747Z,10.88
2018-05-29T17:47:17.804Z,8.65
2018-05-29T17:49:45.855Z,8.80
2018-05-29T17:52:13.894Z,9.60
2018-05-29T17:54:41.939Z,11.05
2018-05-29T17:57:10.097Z,11.00
2018-05-29T17:59:38.924Z,9.07
2018-05-29T18:02:06.976Z,9.95
2018-05-29T18:04:35.783Z,10.98
2018-05-29T18:07:04.607Z,12.60
2018-05-29T18:09:32.655Z,10.90
2018-05-29T18:12:00.775Z,14.55
2018-05-29T18:14:28.823Z,10.30
2018-05-29T18:16:56.892Z,8.57
2018-05-29T18:19:25.032Z,9.95
2018-05-29T18:21:53.087Z,10.23
2018-05-29T18:24:21.895Z,9.15
2018-05-29T18:26:50.749Z,9.00
2018-05-29T18:29:18.759Z,10.50
2018-05-29T18:31:46.866Z,10.73
2018-05-29T18:34:15.675Z,14.68
2018-05-29T18:36:44.503Z,10.52
2018-05-29T18:39:12.555Z,8.80
2018-05-29T18:41:41.388Z,16.85
2018-05-29T18:44:09.468Z,11.02
2018-05-29T18:46:38.339Z,12.90
2018-05-29T18:49:07.191Z,12.90
2018-05-29T18:51:35.970Z,7.67
2018-05-29T18:54:04.030Z,13.00
2018-05-29T18:56:32.085Z,10.53
2018-05-29T18:59:00.127Z,10.53
2018-05-29T19:01:28.251Z,9.63
2018-05-29T19:03:56.406Z,8.90
2018-05-29T19:06:24.495Z,8.27
2018-05-29T19:08:52.531Z,8.97
2018-05-29T19:11:20.573Z,10.17
2018-05-29T19:13:48.629Z,9.03
2018-05-29T19:16:17.451Z,8.73
2018-05-29T19:18:45.503Z,8.20
2018-05-29T19:21:14.320Z,10.47
2018-05-29T19:23:43.139Z,11.30
2018-05-29T19:26:11.186Z,10.20
2018-05-29T19:28:40.013Z,8.70
2018-05-29T19:31:08.082Z,12.27
2018-05-29T19:33:37.010Z,9.77
2018-05-29T19:36:05.050Z,8.97
2018-05-29T19:38:33.104Z,11.03
2018-05-29T19:41:01.167Z,10.13
2018-05-29T19:43:29.363Z,9.87
2018-05-29T19:45:57.432Z,8.90
2018-05-29T19:48:26.448Z,10.47
2018-05-29T19:50:54.533Z,10.70
2018-05-29T19:53:23.314Z,12.93
2018-05-29T19:55:52.135Z,11.20
2018-05-29T19:58:20.214Z,10.70
2018-05-29T20:00:48.263Z,10.60
2018-05-29T20:03:16.310Z,11.87
2018-05-29T20:05:44.373Z,12.07
2018-05-29T20:08:12.435Z,18.47
2018-05-29T20:10:41.251Z,13.17
2018-05-29T20:13:09.343Z,14.40
2018-05-29T20:15:37.432Z,9.87
2018-05-29T20:18:05.502Z,11.60
2018-05-29T20:20:34.307Z,14.07
2018-05-29T20:23:02.393Z,11.23
2018-05-29T20:25:31.196Z,9.63
2018-05-29T20:27:59.247Z,11.40
2018-05-29T20:30:27.373Z,11.77
2018-05-29T20:32:55.426Z,10.43
2018-05-29T20:35:24.255Z,9.20
2018-05-29T20:37:52.303Z,8.17
2018-05-29T20:40:20.347Z,11.37
2018-05-29T20:42:48.400Z,12.20
2018-05-29T20:45:16.446Z,9.73
2018-05-29T20:47:44.491Z,10.63
2018-05-29T20:50:12.534Z,12.53
2018-05-29T20:52:40.652Z,12.00
2018-05-29T20:55:08.694Z,7.93
2018-05-29T20:57:36.740Z,10.03
2018-05-29T21:00:04.790Z,9.27
2018-05-29T21:02:33.603Z,10.53
2018-05-29T21:05:01.653Z,11.20
2018-05-29T21:07:29.703Z,10.60
2018-05-29T21:09:57.748Z,9.70
2018-05-29T21:12:25.844Z,10.07
2018-05-29T21:14:53.915Z,12.43
2018-05-29T21:17:22.732Z,12.10
2018-05-29T21:19:50.780Z,9.60
2018-05-29T21:22:18.970Z,9.60
2018-05-29T21:24:46.955Z,11.70
2018-05-29T21:27:15.000Z,11.57
2018-05-29T21:29:43.053Z,10.60
2018-05-29T21:32:11.143Z,8.27
2018-05-29T21:34:39.195Z,9.03
2018-05-29T21:37:08.012Z,11.33
2018-05-29T21:39:36.831Z,9.23
2018-05-29T21:42:04.919Z,9.83
2018-05-29T21:44:32.966Z,10.27
2018-05-29T21:47:01.775Z,10.27
2018-05-29T21:49:30.622Z,10.07
2018-05-29T21:51:58.672Z,11.50
2018-05-29T21:54:27.488Z,11.07
2018-05-29T21:56:55.534Z,11.90
2018-05-29T21:59:23.584Z,11.50
2018-05-29T22:01:51.631Z,11.47
2018-05-29T22:04:19.686Z,10.57
2018-05-29T22:06:47.732Z,9.53
2018-05-29T22:09:15.784Z,10.87
2018-05-29T22:11:43.830Z,10.43
2018-05-29T22:14:11.880Z,13.80
2018-05-29T22:16:39.928Z,10.13
2018-05-29T22:19:08.856Z,9.97
2018-05-29T22:21:36.890Z,8.93
2018-05-29T22:24:04.942Z,9.53
2018-05-29T22:26:32.986Z,14.00
2018-05-29T22:29:01.796Z,7.13
2018-05-29T22:31:29.834Z,9.87
2018-05-29T22:33:57.887Z,9.33
2018-05-29T22:36:25.923Z,11.93
2018-05-29T22:38:53.968Z,9.27
2018-05-29T22:41:22.032Z,9.63
2018-05-29T22:43:50.116Z,12.20
2018-05-29T22:46:18.169Z,8.50
2018-05-29T22:48:46.283Z,14.77
2018-05-29T22:51:14.334Z,12.67
2018-05-29T22:53:42.381Z,13.77
2018-05-29T22:56:10.548Z,10.67
2018-05-29T22:58:38.591Z,7.60
2018-05-29T23:01:06.647Z,8.17
2018-05-29T23:03:34.683Z,9.17
2018-05-29T23:06:02.733Z,12.60
2018-05-29T23:08:30.772Z,7.43
2018-05-29T23:10:58.818Z,7.70
2018-05-29T23:13:27.627Z,11.00
2018-05-29T23:15:56.443Z,10.63
2018-05-29T23:18:24.549Z,12.93
2018-05-29T23:20:52.541Z,11.80
2018-05-29T23:23:20.585Z,9.23
2018-05-29T23:25:49.395Z,11.17
2018-05-29T23:28:17.452Z,10.43
2018-05-29T23:30:45.496Z,9.73
2018-05-29T23:33:13.535Z,8.20
2018-05-29T23:35:42.350Z,9.93
2018-05-29T23:38:10.394Z,8.20
2018-05-29T23:40:38.440Z,10.00
2018-05-29T23:43:06.501Z,11.50
2018-05-29T23:45:35.307Z,10.90
2018-05-29T23:48:03.344Z,9.00
2018-05-29T23:50:31.398Z,9.80
2018-05-29T23:52:59.451Z,10.17
2018-05-29T23:55:28.267Z,10.27
2018-05-29T23:57:56.314Z,8.77
